Time;durP1;ratioP1;P1;durP2;ratioP2;P2;SDS_P1;SDS_P2;PMS_P1;PMS_P2;Temp;Humidity;BMP_temperature;BMP_pressure;BME280_temperature;BME280_humidity;BME280_pressure;Samples;Min_cycle;Max_cycle;Signal;HPM_P1;HPM_P2
2021/11/13 00:00:30;;;;;;;105.63;64.22;;;102.50;2227.20;;;;;;5058895;28;20078;-87
2021/11/13 00:02:56;;;;;;;113.43;65.45;;;102.70;2227.20;;;;;;5058480;28;20033;-86
2021/11/13 00:05:22;;;;;;;107.80;66.72;;;102.90;2227.20;;;;;;5057486;28;20025;-87
2021/11/13 00:07:48;;;;;;;107.65;58.88;;;103.20;2227.20;;;;;;5069687;28;20032;-82
2021/11/13 00:10:16;;;;;;;97.53;57.47;;;103.30;2227.20;;;;;;5073043;28;20043;-84
2021/11/13 00:12:44;;;;;;;93.05;55.40;;;103.00;2227.20;;;;;;5076249;28;20034;-80
2021/11/13 00:15:10;;;;;;;85.38;53.95;;;103.20;2227.20;;;;;;5077013;28;20021;-80
2021/11/13 00:17:37;;;;;;;92.35;54.97;;;103.10;2227.20;;;;;;5077159;28;20032;-81
2021/11/13 00:20:05;;;;;;;86.78;51.72;;;103.20;2227.20;;;;;;5076719;28;20029;-79
2021/11/13 00:22:31;;;;;;;94.00;58.40;;;103.20;2227.20;;;;;;5076963;28;20063;-79
2021/11/13 00:24:57;;;;;;;88.72;55.10;;;103.30;2227.20;;;;;;5076849;28;20025;-82
2021/11/13 00:27:23;;;;;;;99.38;59.03;;;103.20;2227.20;;;;;;5077445;28;20055;-77
2021/11/13 00:29:49;;;;;;;107.97;65.82;;;103.10;2227.20;;;;;;5076990;28;20033;-78
2021/11/13 00:32:14;;;;;;;113.88;70.72;;;103.10;2227.20;;;;;;5076891;28;20021;-80
2021/11/13 00:34:40;;;;;;;97.60;55.10;;;103.20;2227.20;;;;;;5067365;28;20021;-85
2021/11/13 00:37:06;;;;;;;98.80;62.38;;;103.10;2227.20;;;;;;5053725;28;20025;-85
2021/11/13 00:39:32;;;;;;;94.53;64.13;;;103.00;2227.20;;;;;;5068560;28;20052;-85
2021/11/13 00:41:58;;;;;;;98.65;63.38;;;102.80;2227.20;;;;;;5056897;28;20043;-85
2021/11/13 00:44:24;;;;;;;98.85;63.20;;;103.00;2227.20;;;;;;5056524;28;20031;-84
2021/11/13 00:46:50;;;;;;;97.68;60.65;;;103.00;2227.20;;;;;;5056491;28;20029;-85
2021/11/13 00:49:17;;;;;;;106.05;65.13;;;103.00;2227.20;;;;;;5056830;28;20024;-86
2021/11/13 00:51:45;;;;;;;105.60;63.05;;;103.00;2227.20;;;;;;5056244;28;20033;-86
2021/11/13 00:54:11;;;;;;;82.93;50.47;;;103.10;2227.20;;;;;;5056373;28;20492;-87
2021/11/13 00:56:37;;;;;;;91.30;60.00;;;103.10;2227.20;;;;;;5074186;28;20063;-86
2021/11/13 00:59:03;;;;;;;95.60;60.88;;;103.00;2227.20;;;;;;5056102;28;20028;-87
2021/11/13 01:01:29;;;;;;;92.10;52.08;;;103.00;2227.20;;;;;;5073907;28;20054;-88
2021/11/13 01:03:55;;;;;;;83.65;53.92;;;103.00;2227.20;;;;;;5074127;28;20033;-87
2021/11/13 01:06:21;;;;;;;71.07;46.45;;;103.00;2227.20;;;;;;5055951;28;20025;-86
2021/11/13 01:08:48;;;;;;;75.82;49.00;;;102.80;2227.20;;;;;;5055945;28;20037;-86
2021/11/13 01:11:15;;;;;;;69.40;45.25;;;102.70;2227.20;;;;;;5059460;28;20025;-87
2021/11/13 01:13:42;;;;;;;71.45;44.25;;;102.70;2227.20;;;;;;5077296;28;20028;-87
2021/11/13 01:16:08;;;;;;;75.38;47.97;;;102.60;2227.20;;;;;;5059765;28;20028;-84
2021/11/13 01:18:34;;;;;;;71.05;44.97;;;102.50;2227.20;;;;;;5059968;28;20109;-87
2021/11/13 01:21:00;;;;;;;78.72;47.17;;;77.70;2227.20;;;;;;5059616;28;20472;-85
2021/11/13 01:23:25;;;;;;;71.55;46.92;;;102.50;2227.20;;;;;;5059542;28;20040;-87
2021/11/13 01:25:51;;;;;;;84.18;51.85;;;102.60;2227.20;;;;;;5077485;28;20075;-86
2021/11/13 01:28:17;;;;;;;89.53;55.60;;;102.60;2227.20;;;;;;5059308;28;20025;-86
2021/11/13 01:30:43;;;;;;;95.88;59.38;;;102.50;2227.20;;;;;;5059563;28;20055;-86
2021/11/13 01:33:09;;;;;;;87.13;52.50;;;102.60;2227.20;;;;;;5077174;28;20032;-87
2021/11/13 01:35:35;;;;;;;76.40;48.88;;;102.60;2227.20;;;;;;5059076;28;20250;-87
2021/11/13 01:38:00;;;;;;;75.80;44.45;;;102.60;2227.20;;;;;;5058577;28;20059;-86
2021/11/13 01:40:27;;;;;;;74.65;47.03;;;102.60;2227.20;;;;;;5059044;28;20040;-86
2021/11/13 01:42:58;;;;;;;94.65;59.58;;;102.60;2227.20;;;;;;5059362;28;20465;-84
2021/11/13 01:45:24;;;;;;;86.65;55.20;;;102.50;2227.20;;;;;;5077529;28;20074;-85
2021/11/13 01:47:51;;;;;;;104.82;62.75;;;102.50;2227.20;;;;;;5060558;28;20032;-85
2021/11/13 01:50:36;;;;;;;92.68;60.15;;;77.40;2227.20;;;;;;5060046;28;20025;-86
2021/11/13 01:53:02;;;;;;;87.97;52.90;;;102.40;2227.20;;;;;;5058981;28;20040;-85
2021/11/13 01:55:34;;;;;;;78.13;49.75;;;102.50;2227.20;;;;;;5058418;28;20036;-86
2021/11/13 01:58:01;;;;;;;86.18;54.90;;;102.40;2227.20;;;;;;5076987;28;20102;-86
2021/11/13 02:00:29;;;;;;;97.05;61.20;;;102.60;2227.20;;;;;;5058847;28;20029;-86
2021/11/13 02:02:55;;;;;;;93.80;59.90;;;102.50;2227.20;;;;;;5058532;28;20213;-86
2021/11/13 02:05:22;;;;;;;92.00;59.83;;;102.40;2227.20;;;;;;5076548;28;20040;-86
2021/11/13 02:07:47;;;;;;;104.13;62.70;;;102.40;2227.20;;;;;;5058600;28;20120;-85
2021/11/13 02:10:15;;;;;;;111.30;67.47;;;102.50;2227.20;;;;;;5058366;28;20442;-85
2021/11/13 02:12:42;;;;;;;100.03;62.28;;;102.40;2227.20;;;;;;5058425;28;20075;-86
2021/11/13 02:15:08;;;;;;;96.60;60.67;;;102.40;2227.20;;;;;;5058786;28;20062;-85
2021/11/13 02:17:34;;;;;;;97.78;60.78;;;77.70;2227.20;;;;;;5076285;28;20021;-86
2021/11/13 02:20:17;;;;;;;81.38;52.25;;;77.70;2227.20;;;;;;5058346;28;20050;-85
2021/11/13 02:22:43;;;;;;;76.15;49.92;;;77.50;2227.20;;;;;;5056913;28;20028;-85
2021/11/13 02:25:09;;;;;;;75.55;47.65;;;77.60;2227.20;;;;;;5058696;28;20027;-86
2021/11/13 02:27:35;;;;;;;63.03;41.78;;;77.50;2227.20;;;;;;5076322;28;20474;-84
2021/11/13 02:30:01;;;;;;;87.43;53.30;;;77.70;2227.20;;;;;;5076028;28;20029;-86
2021/11/13 02:32:27;;;;;;;77.18;48.50;;;77.60;2227.20;;;;;;5076130;28;20548;-86
2021/11/13 02:34:53;;;;;;;88.05;56.80;;;77.60;2227.20;;;;;;5058070;28;20111;-85
2021/11/13 02:37:26;;;;;;;82.97;55.83;;;77.60;2227.20;;;;;;5075813;28;20111;-86
2021/11/13 02:39:51;;;;;;;72.97;48.45;;;77.60;2227.20;;;;;;5058118;28;20040;-86
2021/11/13 02:42:22;;;;;;;78.32;44.40;;;77.50;2227.20;;;;;;5058031;28;20480;-85
2021/11/13 02:44:51;;;;;;;71.72;42.13;;;77.70;2227.20;;;;;;5057764;28;20024;-85
2021/11/13 02:47:19;;;;;;;68.50;43.92;;;77.70;2227.20;;;;;;5057728;28;20032;-84
2021/11/13 02:49:46;;;;;;;73.50;47.53;;;77.60;2227.20;;;;;;5057383;28;20025;-86
2021/11/13 02:52:12;;;;;;;86.70;48.30;;;77.70;2227.20;;;;;;5075407;28;20020;-84
2021/11/13 02:54:46;;;;;;;72.07;44.08;;;102.40;2227.20;;;;;;5057840;28;20028;-86
2021/11/13 02:57:12;;;;;;;69.95;44.90;;;77.40;2227.20;;;;;;5057500;28;20028;-87
2021/11/13 02:59:49;;;;;;;91.22;57.30;;;77.20;2227.20;;;;;;5057401;28;20025;-86
2021/11/13 03:02:15;;;;;;;91.38;57.53;;;77.60;2227.20;;;;;;5057454;28;20020;-86
2021/11/13 03:04:42;;;;;;;116.70;68.22;;;77.60;2227.20;;;;;;5057222;28;20147;-86
2021/11/13 03:07:08;;;;;;;157.50;78.75;;;77.60;2227.20;;;;;;5057573;28;20024;-86
2021/11/13 03:09:35;;;;;;;120.38;66.00;;;77.70;2227.20;;;;;;5057525;28;20036;-84
2021/11/13 03:12:02;;;;;;;108.47;63.38;;;77.70;2227.20;;;;;;5057231;28;20059;-85
2021/11/13 03:14:28;;;;;;;115.85;66.40;;;77.70;2227.20;;;;;;5057291;28;20032;-87
2021/11/13 03:17:00;;;;;;;109.70;60.13;;;77.70;2227.20;;;;;;5057246;28;20025;-86
2021/11/13 03:19:26;;;;;;;92.53;52.83;;;102.40;2227.20;;;;;;5057353;28;20060;-86
2021/11/13 03:21:52;;;;;;;92.38;55.00;;;77.50;2227.20;;;;;;5056952;28;20059;-86
2021/11/13 03:24:18;;;;;;;65.03;39.92;;;77.40;2227.20;;;;;;5057203;28;20031;-84
2021/11/13 03:26:44;;;;;;;58.92;38.70;;;77.50;2227.20;;;;;;5056743;28;20024;-86
2021/11/13 03:29:14;;;;;;;52.63;35.03;;;77.20;2227.20;;;;;;5074648;28;20474;-85
2021/11/13 03:31:42;;;;;;;52.83;32.50;;;77.30;2227.20;;;;;;5057175;28;20024;-84
2021/11/13 03:34:08;;;;;;;57.78;36.30;;;77.10;2227.20;;;;;;5056363;28;20063;-86
2021/11/13 03:36:34;;;;;;;60.38;36.35;;;76.80;2227.20;;;;;;5056852;28;20112;-81
2021/11/13 03:39:00;;;;;;;57.00;33.90;;;76.90;2227.20;;;;;;5056710;28;20209;-83
2021/11/13 03:41:28;;;;;;;55.25;36.55;;;77.00;2227.20;;;;;;5056450;28;20032;-85
2021/11/13 03:43:54;;;;;;;59.22;38.28;;;77.20;2227.20;;;;;;5056950;28;20134;-85
2021/11/13 03:46:20;;;;;;;58.38;38.80;;;77.20;2227.20;;;;;;5056694;28;20028;-83
2021/11/13 03:48:46;;;;;;;69.55;41.50;;;77.20;2227.20;;;;;;5056579;28;20182;-84
2021/11/13 03:51:13;;;;;;;78.53;50.88;;;77.30;2227.20;;;;;;5056952;28;20107;-85
2021/11/13 03:53:38;;;;;;;57.10;37.42;;;77.20;2227.20;;;;;;5056471;28;20039;-86
2021/11/13 03:56:04;;;;;;;52.22;34.63;;;77.30;2227.20;;;;;;5056647;28;20028;-83
2021/11/13 03:58:30;;;;;;;57.88;35.70;;;77.40;2227.20;;;;;;5056770;28;20028;-85
2021/11/13 04:00:56;;;;;;;52.20;32.78;;;76.90;2227.20;;;;;;5056462;28;20060;-85
2021/11/13 04:03:22;;;;;;;61.83;35.83;;;77.10;2227.20;;;;;;5056379;28;20115;-84
2021/11/13 04:05:49;;;;;;;61.05;35.80;;;77.10;2227.20;;;;;;5074334;28;20087;-85
2021/11/13 04:08:15;;;;;;;55.00;34.88;;;77.10;2227.20;;;;;;5073912;28;20187;-85
2021/11/13 04:10:41;;;;;;;61.88;37.90;;;77.20;2227.20;;;;;;5056646;28;20024;-85
2021/11/13 04:13:07;;;;;;;51.35;33.22;;;77.20;2227.20;;;;;;5056245;28;20040;-85
2021/11/13 04:15:34;;;;;;;52.05;32.63;;;102.40;2227.20;;;;;;5056293;28;20028;-83
2021/11/13 04:18:00;;;;;;;49.50;33.55;;;77.00;2227.20;;;;;;5056573;28;20082;-86
2021/11/13 04:20:27;;;;;;;52.25;34.40;;;77.00;2227.20;;;;;;5056545;28;20029;-84
2021/11/13 04:22:53;;;;;;;55.20;35.75;;;77.10;2227.20;;;;;;5056156;28;20029;-86
2021/11/13 04:25:21;;;;;;;63.25;37.90;;;76.90;2227.20;;;;;;5056321;28;20036;-88
2021/11/13 04:27:49;;;;;;;66.78;39.70;;;77.00;2227.20;;;;;;5056446;28;20518;-85
2021/11/13 04:30:16;;;;;;;75.95;46.22;;;77.00;2227.20;;;;;;5055944;28;20060;-87
2021/11/13 04:32:43;;;;;;;68.00;44.17;;;76.80;2227.20;;;;;;5056203;28;20036;-86
2021/11/13 04:37:41;;;;;;;58.55;35.97;;;52.10;2227.20;;;;;;5073938;28;20032;-85
2021/11/13 04:40:08;;;;;;;62.20;37.03;;;52.10;2227.20;;;;;;5056135;28;20048;-86
2021/11/13 04:42:34;;;;;;;60.85;36.45;;;52.10;2227.20;;;;;;5055585;28;20033;-85
2021/11/13 04:45:00;;;;;;;54.90;33.78;;;52.00;2227.20;;;;;;5057299;28;20056;-85
2021/11/13 04:47:26;;;;;;;54.65;35.55;;;52.00;2227.20;;;;;;5060360;28;20086;-87
2021/11/13 04:49:52;;;;;;;64.93;41.55;;;76.90;2227.20;;;;;;5060070;28;20043;-85
2021/11/13 04:52:17;;;;;;;64.40;41.10;;;76.90;2227.20;;;;;;5060069;28;20075;-81
2021/11/13 04:54:43;;;;;;;68.88;46.75;;;76.90;2227.20;;;;;;5059988;28;20028;-85
2021/11/13 04:57:09;;;;;;;61.85;38.85;;;77.00;2227.20;;;;;;5059858;28;20462;-84
2021/11/13 04:59:35;;;;;;;59.90;36.20;;;76.80;2227.20;;;;;;5077604;28;20584;-86
2021/11/13 05:02:01;;;;;;;57.90;37.03;;;76.90;2227.20;;;;;;5059951;28;20024;-85
2021/11/13 05:04:27;;;;;;;60.67;39.30;;;76.80;2227.20;;;;;;5059713;28;20112;-85
2021/11/13 05:06:52;;;;;;;67.13;39.30;;;52.00;2227.20;;;;;;5077799;28;20056;-83
2021/11/13 05:09:18;;;;;;;66.15;37.80;;;52.00;2227.20;;;;;;5059901;28;20020;-85
2021/11/13 05:11:44;;;;;;;69.40;38.97;;;51.80;2227.20;;;;;;5059684;28;20021;-85
2021/11/13 05:14:10;;;;;;;61.85;39.30;;;51.90;2227.20;;;;;;5059596;28;20040;-84
2021/11/13 05:16:36;;;;;;;67.13;38.55;;;51.80;2227.20;;;;;;5059406;28;20032;-84
2021/11/13 05:19:02;;;;;;;72.32;46.25;;;51.90;2227.20;;;;;;5059545;28;20048;-83
2021/11/13 05:21:27;;;;;;;89.93;61.72;;;51.70;2227.20;;;;;;5077259;28;20362;-85
2021/11/13 05:23:53;;;;;;;76.78;53.58;;;51.60;2227.20;;;;;;5059563;28;20031;-86
2021/11/13 05:26:19;;;;;;;73.35;47.42;;;51.80;2227.20;;;;;;5059354;28;20362;-85
2021/11/13 05:28:45;;;;;;;66.90;42.97;;;52.00;2227.20;;;;;;5059872;28;20149;-85
2021/11/13 05:31:12;;;;;;;63.80;45.55;;;52.10;2227.20;;;;;;5059261;28;20067;-85
2021/11/13 05:33:40;;;;;;;65.80;40.85;;;52.00;2227.20;;;;;;5077212;28;20036;-84
2021/11/13 05:36:06;;;;;;;62.88;41.42;;;51.80;2227.20;;;;;;5059023;28;20028;-84
2021/11/13 05:38:32;;;;;;;65.47;40.08;;;51.90;2227.20;;;;;;5058577;28;20505;-84
2021/11/13 05:40:58;;;;;;;94.22;55.38;;;51.70;2227.20;;;;;;5058913;28;20470;-84
2021/11/13 05:43:24;;;;;;;133.93;76.88;;;51.80;2227.20;;;;;;5058920;28;20074;-85
2021/11/13 05:45:50;;;;;;;121.18;70.95;;;51.80;2227.20;;;;;;5058745;28;20024;-85
2021/11/13 05:48:17;;;;;;;121.20;71.00;;;51.70;2227.20;;;;;;5059114;28;20085;-84
2021/11/13 05:50:43;;;;;;;119.95;72.10;;;51.90;2227.20;;;;;;5059048;28;20031;-87
2021/11/13 05:53:09;;;;;;;110.07;71.78;;;51.90;2227.20;;;;;;5058801;28;20111;-86
2021/11/13 05:55:36;;;;;;;97.88;62.90;;;51.80;2227.20;;;;;;5058762;28;20079;-86
2021/11/13 05:58:02;;;;;;;92.93;61.83;;;52.10;2227.20;;;;;;5059056;28;20505;-85
2021/11/13 06:00:28;;;;;;;92.30;63.65;;;76.80;2227.20;;;;;;5058770;28;20052;-86
2021/11/13 06:02:54;;;;;;;74.25;49.78;;;76.90;2227.20;;;;;;5058982;28;20052;-85
2021/11/13 06:05:20;;;;;;;70.18;50.63;;;76.90;2227.20;;;;;;5058985;28;20028;-86
2021/11/13 06:07:47;;;;;;;74.20;48.40;;;77.00;2227.20;;;;;;5058618;28;20082;-87
2021/11/13 06:10:14;;;;;;;93.43;61.97;;;76.90;2227.20;;;;;;5058858;28;20025;-88
2021/11/13 06:12:40;;;;;;;83.72;56.42;;;77.00;2227.20;;;;;;5058882;28;20036;-86
2021/11/13 06:15:07;;;;;;;79.57;49.58;;;77.20;2227.20;;;;;;5075908;28;20431;-89
2021/11/13 06:17:33;;;;;;;60.92;38.25;;;76.80;2227.20;;;;;;5058363;28;20032;-89
2021/11/13 06:19:59;;;;;;;67.85;39.25;;;76.90;2227.20;;;;;;5058537;28;20111;-89
2021/11/13 06:22:25;;;;;;;58.70;35.78;;;76.90;2227.20;;;;;;5058197;28;20063;-86
2021/11/13 06:24:51;;;;;;;62.40;37.90;;;76.90;2227.20;;;;;;5058481;28;20457;-86
2021/11/13 06:27:18;;;;;;;62.08;37.22;;;76.90;2227.20;;;;;;5058416;28;20081;-86
2021/11/13 06:29:45;;;;;;;58.47;39.58;;;76.80;2227.20;;;;;;5058228;28;20024;-87
2021/11/13 06:32:12;;;;;;;75.03;45.10;;;76.80;2227.20;;;;;;5076411;28;20072;-87
2021/11/13 06:34:39;;;;;;;57.58;38.50;;;52.00;2227.20;;;;;;5058948;28;20063;-86
2021/11/13 06:37:06;;;;;;;72.18;42.42;;;51.80;2227.20;;;;;;5073497;28;20031;-85
2021/11/13 06:39:33;;;;;;;81.57;51.20;;;52.00;2227.20;;;;;;5090535;28;20049;-85
2021/11/13 06:41:59;;;;;;;83.40;49.65;;;76.80;2227.20;;;;;;5070442;28;20051;-86
2021/11/13 06:44:25;;;;;;;79.43;42.95;;;52.10;2227.20;;;;;;5062200;28;20028;-87
2021/11/13 06:46:51;;;;;;;69.13;45.15;;;76.80;2227.20;;;;;;5058353;28;20488;-85
2021/11/13 06:49:16;;;;;;;67.75;44.88;;;76.80;2227.20;;;;;;5057659;28;20378;-85
2021/11/13 06:51:42;;;;;;;69.57;45.40;;;76.80;2227.20;;;;;;5057838;28;20067;-85
2021/11/13 06:54:09;;;;;;;71.20;48.45;;;76.90;2227.20;;;;;;5057638;28;20037;-84
2021/11/13 06:56:35;;;;;;;68.05;41.63;;;76.90;2227.20;;;;;;5075491;28;20074;-86
2021/11/13 06:59:01;;;;;;;60.95;40.30;;;77.00;2227.20;;;;;;5057804;28;20028;-85
2021/11/13 07:01:27;;;;;;;64.53;42.05;;;77.00;2227.20;;;;;;5057584;28;20452;-85
2021/11/13 07:03:52;;;;;;;80.70;49.83;;;77.10;2227.20;;;;;;5057310;28;20029;-85
2021/11/13 07:06:18;;;;;;;105.20;58.70;;;77.00;2227.20;;;;;;5057483;28;20029;-86
2021/11/13 07:08:44;;;;;;;98.20;55.60;;;76.90;2227.20;;;;;;5056718;28;20021;-85
2021/11/13 07:11:10;;;;;;;83.55;49.28;;;77.00;2227.20;;;;;;5057294;28;20107;-86
2021/11/13 07:13:36;;;;;;;64.00;42.63;;;77.10;2227.20;;;;;;5057450;28;20135;-87
2021/11/13 07:16:03;;;;;;;63.08;38.22;;;77.10;2227.20;;;;;;5057457;28;20020;-88
2021/11/13 07:18:28;;;;;;;54.97;36.03;;;77.20;2227.20;;;;;;5075007;28;20043;-87
2021/11/13 07:20:57;;;;;;;58.90;37.65;;;77.10;2227.20;;;;;;5057167;28;20481;-81
2021/11/13 07:23:23;;;;;;;63.22;38.28;;;77.30;2227.20;;;;;;5056612;28;20070;-85
2021/11/13 07:25:50;;;;;;;66.85;43.45;;;77.20;2227.20;;;;;;5056878;28;20024;-84
2021/11/13 07:28:18;;;;;;;59.53;38.72;;;77.30;2227.20;;;;;;5074918;28;20024;-87
2021/11/13 07:30:45;;;;;;;59.53;36.85;;;77.30;2227.20;;;;;;5056816;28;20086;-86
2021/11/13 07:33:12;;;;;;;55.50;35.35;;;77.20;2227.20;;;;;;5056685;28;20033;-86
2021/11/13 07:35:41;;;;;;;61.53;39.65;;;77.00;2227.20;;;;;;5056652;28;20115;-84
2021/11/13 07:38:07;;;;;;;77.63;47.28;;;77.40;2227.20;;;;;;5056339;28;20378;-82
2021/11/13 07:40:34;;;;;;;75.25;46.40;;;77.40;2227.20;;;;;;5056399;28;20117;-83
2021/11/13 07:43:00;;;;;;;89.07;53.80;;;77.60;2227.20;;;;;;5056619;28;20165;-84
2021/11/13 07:45:30;;;;;;;76.47;44.72;;;77.70;2227.20;;;;;;5056510;28;20382;-87
2021/11/13 07:47:56;;;;;;;72.32;44.38;;;77.70;2227.20;;;;;;5056728;28;20028;-86
2021/11/13 07:50:23;;;;;;;62.42;40.33;;;102.40;2227.20;;;;;;5056566;28;20115;-86
2021/11/13 07:52:49;;;;;;;72.85;44.15;;;102.50;2227.20;;;;;;5056114;28;20036;-85
2021/11/13 07:55:17;;;;;;;72.05;46.50;;;102.60;2227.20;;;;;;5056393;28;20052;-82
2021/11/13 07:57:44;;;;;;;75.78;47.53;;;102.70;2227.20;;;;;;5056566;28;20032;-84
2021/11/13 08:00:12;;;;;;;65.72;41.22;;;102.80;2227.20;;;;;;5056148;28;20052;-82
2021/11/13 08:02:38;;;;;;;63.35;41.92;;;103.00;2227.20;;;;;;5056155;28;20389;-86
2021/11/13 08:05:04;;;;;;;60.53;39.58;;;103.00;2227.20;;;;;;5056063;28;20028;-85
2021/11/13 08:07:30;;;;;;;62.47;41.45;;;103.00;2227.20;;;;;;5055990;28;20377;-83
2021/11/13 08:09:56;;;;;;;69.85;46.88;;;103.20;2227.20;;;;;;5056211;28;20032;-84
2021/11/13 08:12:22;;;;;;;68.75;46.30;;;103.30;2227.20;;;;;;5073772;28;20024;-83
2021/11/13 08:14:48;;;;;;;76.18;49.05;;;128.10;2252.80;;;;;;5056342;28;20032;-84
2021/11/13 08:17:14;;;;;;;59.22;41.90;;;128.20;2252.80;;;;;;5056146;28;20066;-85
2021/11/13 08:19:39;;;;;;;72.45;45.17;;;128.30;2252.80;;;;;;5073413;28;20025;-82
2021/11/13 08:22:06;;;;;;;76.05;48.03;;;128.40;2252.80;;;;;;5056056;28;20093;-82
2021/11/13 08:24:32;;;;;;;59.83;40.60;;;128.50;2252.80;;;;;;5055874;28;20025;-79
2021/11/13 08:26:58;;;;;;;51.47;38.33;;;128.60;2252.80;;;;;;5073257;28;20044;-81
2021/11/13 08:29:24;;;;;;;65.32;44.45;;;128.70;2252.80;;;;;;5055591;28;20024;-77
2021/11/13 08:31:50;;;;;;;56.85;38.80;;;128.90;2252.80;;;;;;5073633;28;20027;-79
2021/11/13 08:34:16;;;;;;;67.18;41.40;;;128.90;2252.80;;;;;;5073192;28;20048;-80
2021/11/13 08:36:43;;;;;;;69.63;47.42;;;153.70;2252.80;;;;;;5055457;28;20025;-77
2021/11/13 08:39:09;;;;;;;63.90;43.88;;;153.80;2252.80;;;;;;5073394;28;20087;-77
2021/11/13 08:41:35;;;;;;;67.13;44.13;;;153.80;2252.80;;;;;;5054728;28;20024;-78
2021/11/13 08:44:03;;;;;;;54.63;39.70;;;153.90;2252.80;;;;;;5055193;28;20123;-83
2021/11/13 08:46:30;;;;;;;96.90;59.80;;;154.00;2252.80;;;;;;5055407;28;20031;-77
2021/11/13 08:48:56;;;;;;;63.35;40.30;;;154.10;2252.80;;;;;;5055083;28;20032;-78
2021/11/13 08:51:22;;;;;;;58.40;36.22;;;154.20;2252.80;;;;;;5073119;28;20032;-78
2021/11/13 08:53:53;;;;;;;57.97;40.03;;;154.30;2252.80;;;;;;5055281;28;20075;-77
2021/11/13 08:56:25;;;;;;;53.40;36.15;;;154.50;2252.80;;;;;;5055187;28;20048;-78
2021/11/13 08:58:52;;;;;;;57.55;37.63;;;179.20;2252.80;;;;;;5073352;28;20020;-77
2021/11/13 09:01:18;;;;;;;57.75;39.47;;;179.20;2252.80;;;;;;5055031;28;20052;-77
2021/11/13 09:03:45;;;;;;;76.97;50.65;;;179.30;2252.80;;;;;;5055148;28;20115;-80
2021/11/13 09:06:17;;;;;;;73.55;46.50;;;179.50;2252.80;;;;;;5055148;28;20028;-79
2021/11/13 09:08:45;;;;;;;67.40;40.72;;;179.60;2252.80;;;;;;5054996;28;20029;-77
2021/11/13 09:11:14;;;;;;;66.72;43.78;;;179.70;2252.80;;;;;;5055123;28;20029;-77
2021/11/13 09:13:40;;;;;;;75.10;48.35;;;179.80;2252.80;;;;;;5072695;28;20032;-79
2021/11/13 09:16:08;;;;;;;67.65;48.28;;;180.00;2252.80;;;;;;5054856;28;20478;-75
2021/11/13 09:18:35;;;;;;;72.88;49.78;;;204.80;2252.80;;;;;;5055039;28;20025;-76
2021/11/13 09:21:01;;;;;;;83.63;49.35;;;204.90;2252.80;;;;;;5055113;28;20024;-78
2021/11/13 09:23:27;;;;;;;92.72;59.75;;;205.00;2252.80;;;;;;5054671;28;20389;-76
2021/11/13 09:25:54;;;;;;;92.07;55.88;;;205.10;2252.80;;;;;;5055102;28;20025;-79
2021/11/13 09:28:20;;;;;;;62.53;44.47;;;205.20;2252.80;;;;;;5073077;28;20034;-82
2021/11/13 09:30:46;;;;;;;62.53;45.58;;;205.40;2252.80;;;;;;5073531;28;20059;-81
2021/11/13 09:33:13;;;;;;;54.72;38.95;;;205.50;2252.80;;;;;;5058531;28;20033;-79
2021/11/13 09:35:40;;;;;;;52.30;37.40;;;205.60;2252.80;;;;;;5076851;28;20051;-80
2021/11/13 09:38:06;;;;;;;58.95;41.83;;;205.70;2252.80;;;;;;5058072;28;20028;-79
2021/11/13 09:40:32;;;;;;;57.13;42.63;;;230.40;2252.80;;;;;;5058612;28;20025;-79
2021/11/13 09:43:00;;;;;;;64.68;45.03;;;230.50;2252.80;;;;;;5076432;28;20416;-78
2021/11/13 09:45:27;;;;;;;61.92;46.45;;;230.50;2252.80;;;;;;5058272;28;20032;-78
2021/11/13 09:47:55;;;;;;;69.05;48.83;;;230.50;2252.80;;;;;;5058322;28;20533;-78
2021/11/13 09:50:25;;;;;;;71.13;52.10;;;230.60;2252.80;;;;;;5057897;28;20024;-79
2021/11/13 09:52:52;;;;;;;75.90;53.13;;;230.70;2252.80;;;;;;5058228;28;20457;-79
2021/11/13 09:55:20;;;;;;;87.22;62.42;;;230.80;2252.80;;;;;;5058142;28;20028;-80
2021/11/13 09:57:46;;;;;;;82.43;58.40;;;230.90;2252.80;;;;;;5057719;28;20032;-81
2021/11/13 10:00:22;;;;;;;78.18;54.80;;;231.10;2252.80;;;;;;5058091;28;20073;-80
2021/11/13 10:02:48;;;;;;;88.28;59.55;;;231.10;2252.80;;;;;;5058139;28;20033;-80
2021/11/13 10:05:15;;;;;;;89.18;61.03;;;256.00;2252.80;;;;;;5057743;28;20029;-81
2021/11/13 10:07:43;;;;;;;81.63;58.85;;;256.20;2252.80;;;;;;5057893;28;20074;-79
2021/11/13 10:10:12;;;;;;;67.72;49.03;;;256.30;2252.80;;;;;;5075659;28;20474;-79
2021/11/13 10:12:41;;;;;;;73.30;52.42;;;256.50;2252.80;;;;;;5057538;28;20028;-79
2021/11/13 10:15:36;;;;;;;64.90;47.88;;;256.50;2252.80;;;;;;5075996;28;20400;-80
2021/11/13 10:18:17;;;;;;;54.83;39.28;;;256.70;2252.80;;;;;;5076116;28;20024;-79
2021/11/13 10:20:46;;;;;;;67.30;45.35;;;256.90;2252.80;;;;;;5057537;28;20042;-81
2021/11/13 10:23:20;;;;;;;90.47;70.10;;;281.70;2278.40;;;;;;5057658;28;20029;-81
2021/11/13 10:26:02;;;;;;;96.10;74.30;;;281.90;2278.40;;;;;;5057350;28;20492;-80
2021/11/13 10:28:29;;;;;;;58.95;46.42;;;281.90;2278.40;;;;;;5075554;28;20500;-80
2021/11/13 10:31:13;;;;;;;56.00;37.85;;;282.50;2278.40;;;;;;5057602;28;20390;-83
2021/11/13 10:33:40;;;;;;;52.65;40.83;;;282.30;2278.40;;;;;;5057489;28;20098;-83
2021/11/13 10:36:07;;;;;;;51.03;37.05;;;282.40;2278.40;;;;;;5056247;28;20032;-78
2021/11/13 10:38:33;;;;;;;48.92;38.45;;;307.30;2304.00;;;;;;5057943;28;20141;-80
2021/11/13 10:41:03;;;;;;;68.05;47.22;;;282.50;2278.40;;;;;;5072409;28;20029;-80
2021/11/13 10:43:39;;;;;;;63.25;47.67;;;307.40;2304.00;;;;;;5072373;28;20040;-77
2021/11/13 10:46:12;;;;;;;61.60;44.15;;;307.60;2304.00;;;;;;5074160;28;20028;-77
2021/11/13 10:48:49;;;;;;;;;;;307.60;2304.00;;;;;;5073166;28;20120;-78
2021/11/13 10:51:18;;;;;;;55.00;38.67;;;307.70;2304.00;;;;;;5073503;28;19955;-77
2021/11/13 10:53:45;;;;;;;53.95;38.15;;;307.80;2304.00;;;;;;5073199;28;20075;-79
2021/11/13 10:56:26;;;;;;;54.88;37.97;;;307.90;2304.00;;;;;;5072681;28;20029;-79
2021/11/13 10:58:59;;;;;;;52.38;36.35;;;308.10;2304.00;;;;;;5072233;28;20033;-78
2021/11/13 11:01:28;;;;;;;;;;;308.00;2304.00;;;;;;5074381;28;20067;-80
2021/11/13 11:04:05;;;;;;;51.70;35.17;;;332.80;2329.60;;;;;;5072650;28;20285;-81
2021/11/13 11:06:38;;;;;;;40.05;29.40;;;333.00;2329.60;;;;;;5071351;28;20531;-79
2021/11/13 11:09:32;;;;;;;41.85;30.73;;;333.20;2329.60;;;;;;5071717;28;20028;-78
2021/11/13 11:12:00;;;;;;;40.15;31.00;;;333.30;2329.60;;;;;;5072072;28;20036;-78
2021/11/13 11:14:29;;;;;;;45.05;33.83;;;333.50;2329.60;;;;;;5072872;28;20040;-79
2021/11/13 11:17:08;;;;;;;42.20;32.08;;;333.70;2329.60;;;;;;5073617;28;20457;-77
2021/11/13 11:19:37;;;;;;;53.00;35.28;;;358.60;2329.60;;;;;;5073561;28;20354;-77
2021/11/13 11:22:18;;;;;;;38.42;30.20;;;358.80;2329.60;;;;;;5072847;28;20504;-80
2021/11/13 11:24:46;;;;;;;56.17;40.10;;;359.00;2304.00;;;;;;5072354;28;20115;-77
2021/11/13 11:27:34;;;;;;;59.88;43.67;;;384.00;2278.40;;;;;;5072121;28;20082;-76
2021/11/13 11:30:09;;;;;;;43.70;32.75;;;384.40;2227.20;;;;;;5072017;28;20055;-80
2021/11/13 11:32:43;;;;;;;68.82;50.03;;;384.40;2176.00;;;;;;5073666;28;20029;-79
2021/11/13 11:35:11;;;;;;;53.40;38.47;;;384.70;2150.40;;;;;;5072869;28;20513;-76
2021/11/13 11:37:40;;;;;;;43.25;34.25;;;409.70;2150.40;;;;;;5071426;28;20037;-76
2021/11/13 11:40:10;;;;;;;45.85;31.83;;;409.80;2124.80;;;;;;5071954;28;20186;-77
2021/11/13 11:42:38;;;;;;;44.55;34.30;;;409.70;2073.60;;;;;;5071153;28;20129;-77
2021/11/13 11:45:05;;;;;;;44.42;33.47;;;410.00;2073.60;;;;;;5072113;28;20028;-78
2021/11/13 11:47:33;;;;;;;39.47;29.98;;;410.20;2048.00;;;;;;5073719;28;20020;-78
2021/11/13 11:50:03;;;;;;;45.97;34.45;;;410.30;1996.80;;;;;;5071356;28;20039;-81
2021/11/13 11:52:30;;;;;;;49.13;34.97;;;410.50;1996.80;;;;;;5072112;28;20032;-80
2021/11/13 11:54:57;;;;;;;62.17;41.00;;;435.20;1971.20;;;;;;5071657;28;20036;-80
2021/11/13 11:57:31;;;;;;;42.75;30.58;;;435.30;1971.20;;;;;;5071310;28;20030;-80
2021/11/13 11:59:59;;;;;;;38.88;29.90;;;435.40;1945.60;;;;;;5073343;28;20119;-81
2021/11/13 12:02:36;;;;;;;37.50;29.23;;;435.40;1920.00;;;;;;5072827;28;20048;-83
2021/11/13 12:05:13;;;;;;;43.75;32.17;;;435.20;1920.00;;;;;;5071505;28;20028;-83
2021/11/13 12:07:40;;;;;;;32.35;24.83;;;435.20;1894.40;;;;;;5072948;28;20533;-82